sensor_id;sensor_type;location;lat;lon;timestamp;P1;durP1;ratioP1;P2;durP2;ratioP2
49730;SDS011;35622;52.008;5.426;2023-08-06T00:02:06;14.48;;;7.95;;
49730;SDS011;35622;52.008;5.426;2023-08-06T00:04:31;13.38;;;8.10;;
49730;SDS011;35622;52.008;5.426;2023-08-06T00:06:57;11.27;;;7.65;;
49730;SDS011;35622;52.008;5.426;2023-08-06T00:09:22;11.65;;;8.05;;
49730;SDS011;35622;52.008;5.426;2023-08-06T00:11:48;14.98;;;7.75;;
49730;SDS011;35622;52.008;5.426;2023-08-06T00:14:13;11.07;;;6.72;;
49730;SDS011;35622;52.008;5.426;2023-08-06T00:16:42;13.02;;;7.38;;
49730;SDS011;35622;52.008;5.426;2023-08-06T00:19:08;10.00;;;7.32;;
49730;SDS011;35622;52.008;5.426;2023-08-06T00:21:34;13.57;;;7.32;;
49730;SDS011;35622;52.008;5.426;2023-08-06T00:23:59;10.05;;;6.57;;
49730;SDS011;35622;52.008;5.426;2023-08-06T00:26:25;8.60;;;7.00;;
49730;SDS011;35622;52.008;5.426;2023-08-06T00:28:50;13.27;;;6.95;;
49730;SDS011;35622;52.008;5.426;2023-08-06T00:31:16;10.98;;;6.80;;
49730;SDS011;35622;52.008;5.426;2023-08-06T00:33:42;9.40;;;6.68;;
49730;SDS011;35622;52.008;5.426;2023-08-06T00:36:07;7.45;;;5.88;;
49730;SDS011;35622;52.008;5.426;2023-08-06T00:38:33;9.13;;;6.03;;
49730;SDS011;35622;52.008;5.426;2023-08-06T00:40:58;8.90;;;6.38;;
49730;SDS011;35622;52.008;5.426;2023-08-06T00:43:24;10.60;;;6.07;;
49730;SDS011;35622;52.008;5.426;2023-08-06T00:45:49;9.55;;;6.53;;
49730;SDS011;35622;52.008;5.426;2023-08-06T00:48:15;13.23;;;6.38;;
49730;SDS011;35622;52.008;5.426;2023-08-06T00:50:41;8.88;;;5.72;;
49730;SDS011;35622;52.008;5.426;2023-08-06T00:53:07;11.13;;;6.45;;
49730;SDS011;35622;52.008;5.426;2023-08-06T00:55:33;8.00;;;6.22;;
49730;SDS011;35622;52.008;5.426;2023-08-06T00:58:00;12.43;;;6.40;;
49730;SDS011;35622;52.008;5.426;2023-08-06T01:00:26;12.02;;;6.50;;
49730;SDS011;35622;52.008;5.426;2023-08-06T01:02:53;12.00;;;6.78;;
49730;SDS011;35622;52.008;5.426;2023-08-06T01:05:18;10.18;;;6.45;;
49730;SDS011;35622;52.008;5.426;2023-08-06T01:10:21;10.40;;;6.60;;
49730;SDS011;35622;52.008;5.426;2023-08-06T01:15:38;12.05;;;7.30;;
49730;SDS011;35622;52.008;5.426;2023-08-06T01:18:10;11.30;;;7.15;;
49730;SDS011;35622;52.008;5.426;2023-08-06T01:20:36;10.65;;;7.18;;
49730;SDS011;35622;52.008;5.426;2023-08-06T01:23:02;10.18;;;7.53;;
49730;SDS011;35622;52.008;5.426;2023-08-06T01:25:34;9.23;;;7.38;;
49730;SDS011;35622;52.008;5.426;2023-08-06T01:28:11;9.20;;;6.70;;
49730;SDS011;35622;52.008;5.426;2023-08-06T01:30:47;11.88;;;6.63;;
49730;SDS011;35622;52.008;5.426;2023-08-06T01:33:16;8.50;;;5.88;;
49730;SDS011;35622;52.008;5.426;2023-08-06T01:35:46;7.05;;;5.75;;
49730;SDS011;35622;52.008;5.426;2023-08-06T01:38:13;8.63;;;5.80;;
49730;SDS011;35622;52.008;5.426;2023-08-06T01:40:39;9.02;;;6.03;;
49730;SDS011;35622;52.008;5.426;2023-08-06T01:43:04;8.18;;;5.55;;
49730;SDS011;35622;52.008;5.426;2023-08-06T01:45:30;9.88;;;5.88;;
49730;SDS011;35622;52.008;5.426;2023-08-06T01:47:55;8.45;;;5.28;;
49730;SDS011;35622;52.008;5.426;2023-08-06T01:50:21;7.63;;;5.35;;
49730;SDS011;35622;52.008;5.426;2023-08-06T01:52:46;9.15;;;5.70;;
49730;SDS011;35622;52.008;5.426;2023-08-06T01:55:12;8.75;;;6.43;;
49730;SDS011;35622;52.008;5.426;2023-08-06T01:57:37;8.10;;;6.32;;
49730;SDS011;35622;52.008;5.426;2023-08-06T02:00:03;8.80;;;6.65;;
49730;SDS011;35622;52.008;5.426;2023-08-06T02:02:29;9.10;;;6.88;;
49730;SDS011;35622;52.008;5.426;2023-08-06T02:04:55;12.23;;;6.82;;
49730;SDS011;35622;52.008;5.426;2023-08-06T02:07:20;10.85;;;7.03;;
49730;SDS011;35622;52.008;5.426;2023-08-06T02:09:46;7.72;;;6.75;;
49730;SDS011;35622;52.008;5.426;2023-08-06T02:12:11;8.65;;;6.90;;
49730;SDS011;35622;52.008;5.426;2023-08-06T02:14:37;11.05;;;7.10;;
49730;SDS011;35622;52.008;5.426;2023-08-06T02:17:02;10.13;;;7.22;;
49730;SDS011;35622;52.008;5.426;2023-08-06T02:19:28;14.43;;;7.45;;
49730;SDS011;35622;52.008;5.426;2023-08-06T02:21:53;9.85;;;6.85;;
49730;SDS011;35622;52.008;5.426;2023-08-06T02:24:19;11.52;;;7.97;;
49730;SDS011;35622;52.008;5.426;2023-08-06T02:26:44;11.43;;;8.30;;
49730;SDS011;35622;52.008;5.426;2023-08-06T02:29:10;10.45;;;8.48;;
49730;SDS011;35622;52.008;5.426;2023-08-06T02:31:35;10.35;;;8.40;;
49730;SDS011;35622;52.008;5.426;2023-08-06T02:34:01;12.25;;;8.60;;
49730;SDS011;35622;52.008;5.426;2023-08-06T02:36:26;10.23;;;8.25;;
49730;SDS011;35622;52.008;5.426;2023-08-06T02:38:54;12.85;;;9.77;;
49730;SDS011;35622;52.008;5.426;2023-08-06T02:41:20;12.32;;;8.70;;
49730;SDS011;35622;52.008;5.426;2023-08-06T02:43:45;12.35;;;9.40;;
49730;SDS011;35622;52.008;5.426;2023-08-06T02:46:11;14.10;;;10.50;;
49730;SDS011;35622;52.008;5.426;2023-08-06T02:48:36;13.25;;;10.80;;
49730;SDS011;35622;52.008;5.426;2023-08-06T02:51:02;13.10;;;10.43;;
49730;SDS011;35622;52.008;5.426;2023-08-06T02:53:28;14.73;;;11.10;;
49730;SDS011;35622;52.008;5.426;2023-08-06T02:55:53;15.82;;;11.63;;
49730;SDS011;35622;52.008;5.426;2023-08-06T02:58:20;14.55;;;11.13;;
49730;SDS011;35622;52.008;5.426;2023-08-06T03:00:58;17.45;;;11.60;;
49730;SDS011;35622;52.008;5.426;2023-08-06T03:03:24;16.02;;;12.00;;
49730;SDS011;35622;52.008;5.426;2023-08-06T03:05:53;15.57;;;11.57;;
49730;SDS011;35622;52.008;5.426;2023-08-06T03:08:19;16.65;;;12.50;;
49730;SDS011;35622;52.008;5.426;2023-08-06T03:10:47;17.25;;;12.63;;
49730;SDS011;35622;52.008;5.426;2023-08-06T03:13:13;17.35;;;12.43;;
49730;SDS011;35622;52.008;5.426;2023-08-06T03:15:39;17.55;;;12.52;;
49730;SDS011;35622;52.008;5.426;2023-08-06T03:18:04;18.40;;;12.63;;
49730;SDS011;35622;52.008;5.426;2023-08-06T03:20:31;19.45;;;12.70;;
49730;SDS011;35622;52.008;5.426;2023-08-06T03:22:57;20.80;;;12.73;;
49730;SDS011;35622;52.008;5.426;2023-08-06T03:25:23;18.45;;;13.57;;
49730;SDS011;35622;52.008;5.426;2023-08-06T03:27:48;16.55;;;13.18;;
49730;SDS011;35622;52.008;5.426;2023-08-06T03:30:14;21.85;;;13.02;;
49730;SDS011;35622;52.008;5.426;2023-08-06T03:32:40;18.33;;;12.45;;
49730;SDS011;35622;52.008;5.426;2023-08-06T03:35:06;20.55;;;13.70;;
49730;SDS011;35622;52.008;5.426;2023-08-06T03:37:32;18.73;;;13.27;;
49730;SDS011;35622;52.008;5.426;2023-08-06T03:39:57;18.23;;;13.13;;
49730;SDS011;35622;52.008;5.426;2023-08-06T03:42:23;17.75;;;13.27;;
49730;SDS011;35622;52.008;5.426;2023-08-06T03:44:48;17.23;;;12.95;;
49730;SDS011;35622;52.008;5.426;2023-08-06T03:47:14;22.77;;;13.73;;
49730;SDS011;35622;52.008;5.426;2023-08-06T03:49:39;19.88;;;13.48;;
49730;SDS011;35622;52.008;5.426;2023-08-06T03:52:05;21.30;;;12.75;;
49730;SDS011;35622;52.008;5.426;2023-08-06T03:54:31;17.92;;;13.25;;
49730;SDS011;35622;52.008;5.426;2023-08-06T03:56:56;19.83;;;13.63;;
49730;SDS011;35622;52.008;5.426;2023-08-06T03:59:22;21.08;;;14.13;;
49730;SDS011;35622;52.008;5.426;2023-08-06T04:01:48;21.83;;;13.93;;
49730;SDS011;35622;52.008;5.426;2023-08-06T04:04:13;21.83;;;14.15;;
49730;SDS011;35622;52.008;5.426;2023-08-06T04:06:39;18.80;;;13.45;;
49730;SDS011;35622;52.008;5.426;2023-08-06T04:09:04;20.17;;;14.18;;
49730;SDS011;35622;52.008;5.426;2023-08-06T04:11:30;20.23;;;14.25;;
49730;SDS011;35622;52.008;5.426;2023-08-06T04:13:55;19.95;;;13.73;;
49730;SDS011;35622;52.008;5.426;2023-08-06T04:16:21;22.45;;;14.80;;
49730;SDS011;35622;52.008;5.426;2023-08-06T04:18:47;19.90;;;14.55;;
49730;SDS011;35622;52.008;5.426;2023-08-06T04:21:12;19.58;;;14.05;;
49730;SDS011;35622;52.008;5.426;2023-08-06T04:23:38;22.80;;;14.43;;
49730;SDS011;35622;52.008;5.426;2023-08-06T04:26:03;20.15;;;13.77;;
49730;SDS011;35622;52.008;5.426;2023-08-06T04:28:29;20.50;;;13.82;;
49730;SDS011;35622;52.008;5.426;2023-08-06T04:30:55;20.70;;;13.38;;
49730;SDS011;35622;52.008;5.426;2023-08-06T04:33:21;21.20;;;14.25;;
49730;SDS011;35622;52.008;5.426;2023-08-06T04:35:46;22.98;;;14.68;;
49730;SDS011;35622;52.008;5.426;2023-08-06T04:38:12;18.27;;;13.68;;
49730;SDS011;35622;52.008;5.426;2023-08-06T04:40:37;19.33;;;13.65;;
49730;SDS011;35622;52.008;5.426;2023-08-06T04:43:03;18.10;;;13.73;;
49730;SDS011;35622;52.008;5.426;2023-08-06T04:45:28;18.40;;;13.35;;
49730;SDS011;35622;52.008;5.426;2023-08-06T04:47:54;21.63;;;13.23;;
49730;SDS011;35622;52.008;5.426;2023-08-06T04:50:20;20.17;;;14.48;;
49730;SDS011;35622;52.008;5.426;2023-08-06T04:52:45;19.50;;;13.52;;
49730;SDS011;35622;52.008;5.426;2023-08-06T04:55:11;20.83;;;13.98;;
49730;SDS011;35622;52.008;5.426;2023-08-06T04:57:37;19.42;;;13.55;;
49730;SDS011;35622;52.008;5.426;2023-08-06T05:00:02;19.45;;;13.60;;
49730;SDS011;35622;52.008;5.426;2023-08-06T05:02:29;19.88;;;14.45;;
49730;SDS011;35622;52.008;5.426;2023-08-06T05:04:57;18.30;;;14.35;;
49730;SDS011;35622;52.008;5.426;2023-08-06T05:07:23;19.48;;;14.20;;
49730;SDS011;35622;52.008;5.426;2023-08-06T05:09:48;23.70;;;14.27;;
49730;SDS011;35622;52.008;5.426;2023-08-06T05:12:14;21.08;;;14.75;;
49730;SDS011;35622;52.008;5.426;2023-08-06T05:14:44;19.38;;;14.43;;
49730;SDS011;35622;52.008;5.426;2023-08-06T05:17:09;20.02;;;14.38;;
49730;SDS011;35622;52.008;5.426;2023-08-06T05:19:35;18.98;;;14.52;;
49730;SDS011;35622;52.008;5.426;2023-08-06T05:22:00;20.52;;;15.23;;
49730;SDS011;35622;52.008;5.426;2023-08-06T05:24:27;22.85;;;14.63;;
49730;SDS011;35622;52.008;5.426;2023-08-06T05:26:52;21.65;;;15.60;;
49730;SDS011;35622;52.008;5.426;2023-08-06T05:29:18;23.13;;;15.20;;
49730;SDS011;35622;52.008;5.426;2023-08-06T05:31:43;22.00;;;16.20;;
49730;SDS011;35622;52.008;5.426;2023-08-06T05:34:09;22.20;;;16.88;;
49730;SDS011;35622;52.008;5.426;2023-08-06T05:36:34;20.73;;;15.52;;
49730;SDS011;35622;52.008;5.426;2023-08-06T05:39:00;18.33;;;14.73;;
49730;SDS011;35622;52.008;5.426;2023-08-06T05:41:25;22.88;;;16.50;;
49730;SDS011;35622;52.008;5.426;2023-08-06T05:43:51;23.02;;;17.27;;
49730;SDS011;35622;52.008;5.426;2023-08-06T05:46:16;23.70;;;17.13;;
49730;SDS011;35622;52.008;5.426;2023-08-06T05:48:42;28.00;;;18.10;;
49730;SDS011;35622;52.008;5.426;2023-08-06T05:51:07;27.65;;;18.65;;
49730;SDS011;35622;52.008;5.426;2023-08-06T05:53:33;25.10;;;17.98;;
49730;SDS011;35622;52.008;5.426;2023-08-06T05:55:58;25.45;;;18.23;;
49730;SDS011;35622;52.008;5.426;2023-08-06T05:58:24;23.48;;;17.52;;
49730;SDS011;35622;52.008;5.426;2023-08-06T06:00:51;27.05;;;18.33;;
49730;SDS011;35622;52.008;5.426;2023-08-06T06:03:17;25.10;;;17.40;;
49730;SDS011;35622;52.008;5.426;2023-08-06T06:05:42;26.98;;;18.15;;
49730;SDS011;35622;52.008;5.426;2023-08-06T06:08:08;25.73;;;18.58;;
49730;SDS011;35622;52.008;5.426;2023-08-06T06:10:33;25.50;;;18.00;;
49730;SDS011;35622;52.008;5.426;2023-08-06T06:12:59;28.00;;;18.13;;
49730;SDS011;35622;52.008;5.426;2023-08-06T06:15:25;26.30;;;18.48;;
49730;SDS011;35622;52.008;5.426;2023-08-06T06:17:50;25.52;;;18.63;;
49730;SDS011;35622;52.008;5.426;2023-08-06T06:20:16;27.77;;;18.65;;
49730;SDS011;35622;52.008;5.426;2023-08-06T06:22:42;26.30;;;18.08;;
49730;SDS011;35622;52.008;5.426;2023-08-06T06:25:08;25.27;;;18.13;;
49730;SDS011;35622;52.008;5.426;2023-08-06T06:27:34;26.65;;;18.88;;
49730;SDS011;35622;52.008;5.426;2023-08-06T06:30:00;25.40;;;18.13;;
49730;SDS011;35622;52.008;5.426;2023-08-06T06:32:25;24.75;;;18.05;;
49730;SDS011;35622;52.008;5.426;2023-08-06T06:34:51;26.23;;;18.23;;
49730;SDS011;35622;52.008;5.426;2023-08-06T06:37:16;25.90;;;17.60;;
49730;SDS011;35622;52.008;5.426;2023-08-06T06:39:42;23.70;;;18.05;;
49730;SDS011;35622;52.008;5.426;2023-08-06T06:42:09;25.20;;;18.60;;
49730;SDS011;35622;52.008;5.426;2023-08-06T06:44:34;24.98;;;17.10;;
49730;SDS011;35622;52.008;5.426;2023-08-06T06:47:00;25.38;;;17.25;;
49730;SDS011;35622;52.008;5.426;2023-08-06T06:49:25;25.23;;;18.33;;
49730;SDS011;35622;52.008;5.426;2023-08-06T06:51:51;26.65;;;18.15;;
49730;SDS011;35622;52.008;5.426;2023-08-06T06:54:16;26.52;;;17.73;;
49730;SDS011;35622;52.008;5.426;2023-08-06T06:56:42;24.95;;;17.00;;
49730;SDS011;35622;52.008;5.426;2023-08-06T06:59:07;28.13;;;17.83;;
49730;SDS011;35622;52.008;5.426;2023-08-06T07:01:33;24.80;;;17.52;;
49730;SDS011;35622;52.008;5.426;2023-08-06T07:03:58;26.77;;;18.25;;
49730;SDS011;35622;52.008;5.426;2023-08-06T07:06:24;22.50;;;16.58;;
49730;SDS011;35622;52.008;5.426;2023-08-06T07:08:49;22.58;;;16.67;;
49730;SDS011;35622;52.008;5.426;2023-08-06T07:11:15;23.35;;;16.90;;
49730;SDS011;35622;52.008;5.426;2023-08-06T07:13:41;23.73;;;16.27;;
49730;SDS011;35622;52.008;5.426;2023-08-06T07:16:06;26.95;;;17.45;;
49730;SDS011;35622;52.008;5.426;2023-08-06T07:18:32;22.25;;;15.45;;
49730;SDS011;35622;52.008;5.426;2023-08-06T07:20:57;21.35;;;14.88;;
49730;SDS011;35622;52.008;5.426;2023-08-06T07:23:23;18.70;;;13.15;;
49730;SDS011;35622;52.008;5.426;2023-08-06T07:25:50;13.45;;;9.63;;
49730;SDS011;35622;52.008;5.426;2023-08-06T07:28:16;11.02;;;8.00;;
49730;SDS011;35622;52.008;5.426;2023-08-06T07:30:42;11.65;;;8.73;;
49730;SDS011;35622;52.008;5.426;2023-08-06T07:33:09;8.93;;;5.47;;
49730;SDS011;35622;52.008;5.426;2023-08-06T07:35:35;8.15;;;4.82;;
49730;SDS011;35622;52.008;5.426;2023-08-06T07:38:01;6.28;;;4.43;;
49730;SDS011;35622;52.008;5.426;2023-08-06T07:40:27;4.57;;;1.90;;
49730;SDS011;35622;52.008;5.426;2023-08-06T07:42:53;2.05;;;1.40;;
49730;SDS011;35622;52.008;5.426;2023-08-06T07:45:19;3.40;;;1.00;;
49730;SDS011;35622;52.008;5.426;2023-08-06T07:47:44;3.92;;;1.20;;
49730;SDS011;35622;52.008;5.426;2023-08-06T07:50:10;2.00;;;1.10;;
49730;SDS011;35622;52.008;5.426;2023-08-06T07:52:36;3.38;;;1.02;;
49730;SDS011;35622;52.008;5.426;2023-08-06T07:55:01;3.10;;;1.20;;
49730;SDS011;35622;52.008;5.426;2023-08-06T07:57:30;2.05;;;1.38;;
49730;SDS011;35622;52.008;5.426;2023-08-06T07:59:59;4.38;;;1.52;;
49730;SDS011;35622;52.008;5.426;2023-08-06T08:02:25;2.13;;;1.25;;
49730;SDS011;35622;52.008;5.426;2023-08-06T08:04:51;2.42;;;1.38;;
49730;SDS011;35622;52.008;5.426;2023-08-06T08:07:17;2.10;;;1.58;;
49730;SDS011;35622;52.008;5.426;2023-08-06T08:09:43;2.35;;;1.70;;
49730;SDS011;35622;52.008;5.426;2023-08-06T08:12:09;4.45;;;1.83;;
49730;SDS011;35622;52.008;5.426;2023-08-06T08:14:34;2.78;;;2.15;;
49730;SDS011;35622;52.008;5.426;2023-08-06T08:17:03;3.03;;;2.28;;
49730;SDS011;35622;52.008;5.426;2023-08-06T08:19:29;3.03;;;2.28;;
49730;SDS011;35622;52.008;5.426;2023-08-06T08:21:55;4.38;;;2.40;;
49730;SDS011;35622;52.008;5.426;2023-08-06T08:24:21;4.38;;;2.47;;
49730;SDS011;35622;52.008;5.426;2023-08-06T08:26:49;2.85;;;2.08;;
49730;SDS011;35622;52.008;5.426;2023-08-06T08:29:19;2.97;;;1.77;;
49730;SDS011;35622;52.008;5.426;2023-08-06T08:31:45;3.53;;;1.98;;
49730;SDS011;35622;52.008;5.426;2023-08-06T08:34:10;2.40;;;2.08;;
49730;SDS011;35622;52.008;5.426;2023-08-06T08:36:36;2.50;;;1.85;;
49730;SDS011;35622;52.008;5.426;2023-08-06T08:39:02;2.20;;;1.70;;
49730;SDS011;35622;52.008;5.426;2023-08-06T08:41:29;4.30;;;1.90;;
49730;SDS011;35622;52.008;5.426;2023-08-06T08:43:56;2.97;;;1.80;;
49730;SDS011;35622;52.008;5.426;2023-08-06T08:46:27;3.85;;;2.30;;
49730;SDS011;35622;52.008;5.426;2023-08-06T08:48:57;3.45;;;2.30;;
49730;SDS011;35622;52.008;5.426;2023-08-06T08:51:24;3.42;;;2.55;;
49730;SDS011;35622;52.008;5.426;2023-08-06T08:53:52;4.40;;;2.80;;
49730;SDS011;35622;52.008;5.426;2023-08-06T08:56:21;4.25;;;2.88;;
49730;SDS011;35622;52.008;5.426;2023-08-06T08:58:47;4.07;;;2.95;;
49730;SDS011;35622;52.008;5.426;2023-08-06T09:01:13;3.83;;;2.90;;
49730;SDS011;35622;52.008;5.426;2023-08-06T09:03:40;7.55;;;4.43;;
49730;SDS011;35622;52.008;5.426;2023-08-06T09:06:08;6.85;;;3.63;;
49730;SDS011;35622;52.008;5.426;2023-08-06T09:08:37;5.68;;;3.90;;
49730;SDS011;35622;52.008;5.426;2023-08-06T09:11:12;6.35;;;4.43;;
49730;SDS011;35622;52.008;5.426;2023-08-06T09:13:38;5.65;;;4.18;;
49730;SDS011;35622;52.008;5.426;2023-08-06T09:16:04;5.70;;;4.30;;
49730;SDS011;35622;52.008;5.426;2023-08-06T09:18:30;4.78;;;4.00;;
49730;SDS011;35622;52.008;5.426;2023-08-06T09:20:56;6.78;;;4.63;;
49730;SDS011;35622;52.008;5.426;2023-08-06T09:23:29;7.10;;;4.88;;
49730;SDS011;35622;52.008;5.426;2023-08-06T09:25:56;6.00;;;4.18;;
49730;SDS011;35622;52.008;5.426;2023-08-06T09:28:22;6.85;;;4.78;;
49730;SDS011;35622;52.008;5.426;2023-08-06T09:30:49;6.90;;;4.65;;
49730;SDS011;35622;52.008;5.426;2023-08-06T09:33:18;7.47;;;4.65;;
49730;SDS011;35622;52.008;5.426;2023-08-06T09:35:45;7.70;;;5.40;;
49730;SDS011;35622;52.008;5.426;2023-08-06T09:38:11;7.20;;;5.05;;
49730;SDS011;35622;52.008;5.426;2023-08-06T09:40:38;6.30;;;4.63;;
49730;SDS011;35622;52.008;5.426;2023-08-06T09:43:05;6.03;;;5.00;;
49730;SDS011;35622;52.008;5.426;2023-08-06T09:45:32;7.22;;;5.50;;
49730;SDS011;35622;52.008;5.426;2023-08-06T09:48:05;7.82;;;5.65;;
49730;SDS011;35622;52.008;5.426;2023-08-06T09:50:33;6.10;;;4.93;;
49730;SDS011;35622;52.008;5.426;2023-08-06T09:53:04;6.03;;;4.80;;
49730;SDS011;35622;52.008;5.426;2023-08-06T09:55:32;6.50;;;4.90;;
49730;SDS011;35622;52.008;5.426;2023-08-06T09:57:58;6.55;;;5.07;;
49730;SDS011;35622;52.008;5.426;2023-08-06T10:00:24;6.35;;;4.88;;
49730;SDS011;35622;52.008;5.426;2023-08-06T10:02:50;6.90;;;4.45;;
49730;SDS011;35622;52.008;5.426;2023-08-06T10:05:19;5.78;;;4.38;;
49730;SDS011;35622;52.008;5.426;2023-08-06T10:07:45;5.38;;;3.65;;
49730;SDS011;35622;52.008;5.426;2023-08-06T10:10:12;4.80;;;3.85;;
49730;SDS011;35622;52.008;5.426;2023-08-06T10:12:43;6.32;;;4.22;;
49730;SDS011;35622;52.008;5.426;2023-08-06T10:15:14;6.13;;;3.97;;
49730;SDS011;35622;52.008;5.426;2023-08-06T10:17:43;6.80;;;4.20;;
49730;SDS011;35622;52.008;5.426;2023-08-06T10:20:10;5.47;;;4.07;;
49730;SDS011;35622;52.008;5.426;2023-08-06T10:22:37;5.65;;;4.53;;
49730;SDS011;35622;52.008;5.426;2023-08-06T10:25:08;5.07;;;3.90;;
49730;SDS011;35622;52.008;5.426;2023-08-06T10:32:50;6.07;;;3.80;;
49730;SDS011;35622;52.008;5.426;2023-08-06T10:38:21;5.90;;;3.70;;
49730;SDS011;35622;52.008;5.426;2023-08-06T10:41:00;5.57;;;3.55;;
49730;SDS011;35622;52.008;5.426;2023-08-06T10:45:52;9.20;;;3.58;;
49730;SDS011;35622;52.008;5.426;2023-08-06T10:48:34;6.90;;;3.70;;
49730;SDS011;35622;52.008;5.426;2023-08-06T10:51:01;5.22;;;2.70;;
49730;SDS011;35622;52.008;5.426;2023-08-06T10:53:27;5.78;;;3.42;;
49730;SDS011;35622;52.008;5.426;2023-08-06T10:55:53;5.70;;;2.80;;
49730;SDS011;35622;52.008;5.426;2023-08-06T10:58:18;5.18;;;2.90;;
49730;SDS011;35622;52.008;5.426;2023-08-06T11:00:44;5.70;;;3.05;;
49730;SDS011;35622;52.008;5.426;2023-08-06T11:03:10;5.13;;;3.10;;
49730;SDS011;35622;52.008;5.426;2023-08-06T11:05:36;6.47;;;3.13;;
49730;SDS011;35622;52.008;5.426;2023-08-06T11:08:02;7.05;;;2.70;;
49730;SDS011;35622;52.008;5.426;2023-08-06T11:10:27;6.43;;;3.22;;
49730;SDS011;35622;52.008;5.426;2023-08-06T11:12:53;5.80;;;2.80;;
49730;SDS011;35622;52.008;5.426;2023-08-06T11:15:20;4.47;;;2.90;;
49730;SDS011;35622;52.008;5.426;2023-08-06T11:17:46;5.72;;;2.97;;
49730;SDS011;35622;52.008;5.426;2023-08-06T11:20:12;5.38;;;2.83;;
49730;SDS011;35622;52.008;5.426;2023-08-06T11:22:38;4.95;;;2.92;;
49730;SDS011;35622;52.008;5.426;2023-08-06T11:25:04;6.25;;;2.92;;
49730;SDS011;35622;52.008;5.426;2023-08-06T11:27:31;6.15;;;2.70;;
49730;SDS011;35622;52.008;5.426;2023-08-06T11:29:57;4.60;;;2.45;;
49730;SDS011;35622;52.008;5.426;2023-08-06T11:32:23;5.47;;;2.90;;
49730;SDS011;35622;52.008;5.426;2023-08-06T11:34:48;6.00;;;2.70;;
49730;SDS011;35622;52.008;5.426;2023-08-06T11:37:14;5.63;;;2.50;;
49730;SDS011;35622;52.008;5.426;2023-08-06T11:39:41;4.57;;;2.45;;
49730;SDS011;35622;52.008;5.426;2023-08-06T11:42:13;3.40;;;2.17;;
49730;SDS011;35622;52.008;5.426;2023-08-06T11:44:38;5.13;;;2.30;;
49730;SDS011;35622;52.008;5.426;2023-08-06T11:47:12;6.97;;;2.63;;
49730;SDS011;35622;52.008;5.426;2023-08-06T11:49:45;7.65;;;2.63;;
49730;SDS011;35622;52.008;5.426;2023-08-06T11:52:13;3.83;;;2.38;;
49730;SDS011;35622;52.008;5.426;2023-08-06T11:54:39;3.30;;;2.08;;
49730;SDS011;35622;52.008;5.426;2023-08-06T11:57:05;4.68;;;1.73;;
49730;SDS011;35622;52.008;5.426;2023-08-06T11:59:31;2.58;;;1.70;;
49730;SDS011;35622;52.008;5.426;2023-08-06T12:01:57;3.95;;;2.13;;
49730;SDS011;35622;52.008;5.426;2023-08-06T12:04:24;5.05;;;1.80;;
49730;SDS011;35622;52.008;5.426;2023-08-06T12:06:50;5.70;;;2.10;;
49730;SDS011;35622;52.008;5.426;2023-08-06T12:09:15;3.88;;;1.85;;
49730;SDS011;35622;52.008;5.426;2023-08-06T12:11:41;2.92;;;1.58;;
49730;SDS011;35622;52.008;5.426;2023-08-06T12:14:07;3.45;;;1.60;;
49730;SDS011;35622;52.008;5.426;2023-08-06T12:16:32;2.88;;;1.55;;
49730;SDS011;35622;52.008;5.426;2023-08-06T12:18:58;2.92;;;1.67;;
49730;SDS011;35622;52.008;5.426;2023-08-06T12:21:23;2.97;;;1.80;;
49730;SDS011;35622;52.008;5.426;2023-08-06T12:23:49;3.28;;;1.70;;
49730;SDS011;35622;52.008;5.426;2023-08-06T12:26:14;2.70;;;1.60;;
49730;SDS011;35622;52.008;5.426;2023-08-06T12:28:40;2.55;;;1.38;;
49730;SDS011;35622;52.008;5.426;2023-08-06T12:31:06;3.53;;;1.70;;
49730;SDS011;35622;52.008;5.426;2023-08-06T12:33:31;3.33;;;1.20;;
49730;SDS011;35622;52.008;5.426;2023-08-06T12:35:57;2.33;;;1.30;;
49730;SDS011;35622;52.008;5.426;2023-08-06T12:38:22;2.70;;;1.10;;
49730;SDS011;35622;52.008;5.426;2023-08-06T12:40:48;3.40;;;1.33;;
49730;SDS011;35622;52.008;5.426;2023-08-06T12:43:14;3.67;;;1.85;;
49730;SDS011;35622;52.008;5.426;2023-08-06T12:45:39;1.83;;;1.00;;
49730;SDS011;35622;52.008;5.426;2023-08-06T12:48:06;1.98;;;1.30;;
49730;SDS011;35622;52.008;5.426;2023-08-06T12:50:31;2.92;;;1.00;;
49730;SDS011;35622;52.008;5.426;2023-08-06T12:52:57;2.92;;;1.38;;
49730;SDS011;35622;52.008;5.426;2023-08-06T12:55:23;2.22;;;0.93;;
49730;SDS011;35622;52.008;5.426;2023-08-06T12:57:48;2.55;;;1.05;;
49730;SDS011;35622;52.008;5.426;2023-08-06T13:00:14;2.97;;;1.10;;
49730;SDS011;35622;52.008;5.426;2023-08-06T13:02:40;1.88;;;1.10;;
49730;SDS011;35622;52.008;5.426;2023-08-06T13:05:05;3.17;;;1.10;;
49730;SDS011;35622;52.008;5.426;2023-08-06T13:07:32;2.80;;;1.23;;
49730;SDS011;35622;52.008;5.426;2023-08-06T13:09:57;3.45;;;1.27;;
49730;SDS011;35622;52.008;5.426;2023-08-06T13:12:23;2.55;;;1.23;;
49730;SDS011;35622;52.008;5.426;2023-08-06T13:14:48;2.78;;;1.20;;
49730;SDS011;35622;52.008;5.426;2023-08-06T13:17:14;3.75;;;1.13;;
49730;SDS011;35622;52.008;5.426;2023-08-06T13:19:40;3.58;;;1.30;;
49730;SDS011;35622;52.008;5.426;2023-08-06T13:22:05;2.00;;;1.00;;
49730;SDS011;35622;52.008;5.426;2023-08-06T13:24:33;2.85;;;1.05;;
49730;SDS011;35622;52.008;5.426;2023-08-06T13:26:59;2.00;;;1.00;;
49730;SDS011;35622;52.008;5.426;2023-08-06T13:29:25;3.85;;;1.30;;
49730;SDS011;35622;52.008;5.426;2023-08-06T13:31:52;2.80;;;1.17;;
49730;SDS011;35622;52.008;5.426;2023-08-06T13:34:18;2.38;;;1.10;;
49730;SDS011;35622;52.008;5.426;2023-08-06T13:36:43;3.03;;;1.30;;
49730;SDS011;35622;52.008;5.426;2023-08-06T13:39:09;3.83;;;1.35;;
49730;SDS011;35622;52.008;5.426;2023-08-06T13:41:35;4.07;;;1.15;;
49730;SDS011;35622;52.008;5.426;2023-08-06T13:44:02;2.92;;;1.30;;
49730;SDS011;35622;52.008;5.426;2023-08-06T13:46:27;3.72;;;1.33;;
49730;SDS011;35622;52.008;5.426;2023-08-06T13:48:53;3.85;;;1.30;;
49730;SDS011;35622;52.008;5.426;2023-08-06T13:51:18;3.55;;;1.23;;
49730;SDS011;35622;52.008;5.426;2023-08-06T13:53:44;3.95;;;1.50;;
49730;SDS011;35622;52.008;5.426;2023-08-06T13:56:10;3.50;;;1.50;;
49730;SDS011;35622;52.008;5.426;2023-08-06T13:58:36;3.28;;;1.70;;
49730;SDS011;35622;52.008;5.426;2023-08-06T14:01:02;5.88;;;1.60;;
49730;SDS011;35622;52.008;5.426;2023-08-06T14:03:28;3.90;;;1.50;;
49730;SDS011;35622;52.008;5.426;2023-08-06T14:05:53;4.07;;;1.50;;
49730;SDS011;35622;52.008;5.426;2023-08-06T14:08:21;4.72;;;1.40;;
49730;SDS011;35622;52.008;5.426;2023-08-06T14:10:48;2.70;;;1.35;;
49730;SDS011;35622;52.008;5.426;2023-08-06T14:13:14;4.88;;;1.60;;
49730;SDS011;35622;52.008;5.426;2023-08-06T14:15:39;4.55;;;1.45;;
49730;SDS011;35622;52.008;5.426;2023-08-06T14:18:05;7.15;;;2.00;;
49730;SDS011;35622;52.008;5.426;2023-08-06T14:20:33;4.07;;;1.55;;
49730;SDS011;35622;52.008;5.426;2023-08-06T14:22:59;4.80;;;1.88;;
49730;SDS011;35622;52.008;5.426;2023-08-06T14:25:25;4.25;;;1.48;;
49730;SDS011;35622;52.008;5.426;2023-08-06T14:27:50;5.97;;;1.90;;
49730;SDS011;35622;52.008;5.426;2023-08-06T14:30:16;4.15;;;1.90;;
49730;SDS011;35622;52.008;5.426;2023-08-06T14:32:42;4.80;;;1.60;;
49730;SDS011;35622;52.008;5.426;2023-08-06T14:35:07;5.65;;;1.70;;
49730;SDS011;35622;52.008;5.426;2023-08-06T14:37:33;3.30;;;1.77;;
49730;SDS011;35622;52.008;5.426;2023-08-06T14:39:58;4.10;;;1.80;;
49730;SDS011;35622;52.008;5.426;2023-08-06T14:42:24;3.42;;;2.03;;
49730;SDS011;35622;52.008;5.426;2023-08-06T14:44:49;3.05;;;1.80;;
49730;SDS011;35622;52.008;5.426;2023-08-06T14:47:15;3.95;;;1.70;;
49730;SDS011;35622;52.008;5.426;2023-08-06T14:49:41;5.07;;;1.75;;